createdAt,value
2024-04-25T00:01:24.840Z,8.11
2024-04-25T00:03:54.823Z,7.98
2024-04-25T00:06:27.763Z,7.93
2024-04-25T00:08:57.848Z,8.01
2024-04-25T00:11:28.106Z,8.08
2024-04-25T00:13:58.223Z,8.12
2024-04-25T00:16:28.274Z,8.17
2024-04-25T00:18:59.054Z,8.18
2024-04-25T00:21:31.698Z,8.19
2024-04-25T00:24:01.691Z,8.19
2024-04-25T00:26:31.666Z,8.29
2024-04-25T00:29:03.220Z,8.32
2024-04-25T00:31:34.709Z,8.31
2024-04-25T00:34:04.843Z,8.32
2024-04-25T00:36:37.442Z,8.26
2024-04-25T00:39:07.519Z,8.22
2024-04-25T00:41:37.587Z,8.09
2024-04-25T00:44:07.726Z,8.08
2024-04-25T00:46:37.693Z,8.10
2024-04-25T00:49:07.900Z,8.12
2024-04-25T00:51:41.801Z,8.08
2024-04-25T00:54:11.936Z,8.07
2024-04-25T00:56:44.715Z,8.10
2024-04-25T00:59:16.888Z,8.13
2024-04-25T01:01:47.660Z,8.14
2024-04-25T01:04:19.349Z,8.12
2024-04-25T01:06:54.368Z,8.12
2024-04-25T01:09:24.364Z,8.12
2024-04-25T01:11:54.412Z,8.12
2024-04-25T01:14:24.639Z,8.13
2024-04-25T01:16:54.686Z,8.14
2024-04-25T01:19:24.667Z,8.07
2024-04-25T01:21:57.519Z,8.03
2024-04-25T01:24:31.211Z,8.02
2024-04-25T01:27:04.882Z,8.04
2024-04-25T01:29:36.445Z,8.05
2024-04-25T01:32:08.287Z,8.06
2024-04-25T01:34:38.935Z,8.04
2024-04-25T01:37:09.040Z,8.03
2024-04-25T01:39:39.090Z,7.98
2024-04-25T01:42:11.808Z,7.92
2024-04-25T01:44:41.850Z,7.90
2024-04-25T01:47:12.342Z,7.90
2024-04-25T01:49:42.364Z,7.84
2024-04-25T01:52:12.341Z,7.90
2024-04-25T01:54:42.279Z,7.90
2024-04-25T01:57:14.958Z,7.95
2024-04-25T01:59:45.128Z,8.00
2024-04-25T02:02:15.310Z,8.02
2024-04-25T02:04:45.261Z,8.03
2024-04-25T02:07:15.242Z,8.06
2024-04-25T02:09:45.239Z,8.08
2024-04-25T02:12:15.277Z,8.01
2024-04-25T02:14:45.301Z,7.96
2024-04-25T02:17:15.393Z,7.95
2024-04-25T02:19:45.539Z,7.92
2024-04-25T02:22:31.131Z,7.94
2024-04-25T02:25:21.685Z,7.97
2024-04-25T02:27:54.329Z,7.96
2024-04-25T02:30:24.398Z,8.00
2024-04-25T02:32:54.615Z,8.05
2024-04-25T02:35:22.007Z,8.06
2024-04-25T02:37:52.056Z,8.07
2024-04-25T02:40:22.096Z,8.09
2024-04-25T02:42:54.724Z,8.08
2024-04-25T02:45:21.975Z,8.05
2024-04-25T02:47:52.005Z,8.03
2024-04-25T02:50:19.569Z,7.98
2024-04-25T02:52:49.639Z,7.96
2024-04-25T02:55:16.989Z,7.92
2024-04-25T02:57:46.992Z,7.97
2024-04-25T03:00:17.296Z,8.00
2024-04-25T03:02:48.086Z,7.99
2024-04-25T03:05:15.463Z,8.02
2024-04-25T03:07:45.454Z,8.04
2024-04-25T03:10:12.688Z,8.04
2024-04-25T03:12:42.770Z,8.05
2024-04-25T03:15:10.680Z,8.03
2024-04-25T03:17:43.432Z,8.03
2024-04-25T03:20:11.126Z,8.06
2024-04-25T03:22:41.085Z,8.09
2024-04-25T03:25:09.738Z,8.11
2024-04-25T03:27:39.907Z,8.12
2024-04-25T03:30:08.600Z,8.08
2024-04-25T03:32:38.847Z,8.04
2024-04-25T03:35:11.912Z,7.99
2024-04-25T03:37:41.866Z,7.99
2024-04-25T03:40:12.644Z,7.99
2024-04-25T03:42:42.511Z,7.96
2024-04-25T03:45:12.508Z,7.97
2024-04-25T03:47:42.536Z,7.95
2024-04-25T03:50:15.431Z,7.95
2024-04-25T03:52:45.437Z,7.94
2024-04-25T03:55:15.627Z,7.87
2024-04-25T03:57:45.662Z,7.81
2024-04-25T04:00:16.156Z,7.75
2024-04-25T04:02:46.286Z,7.62
2024-04-25T04:05:19.725Z,7.47
2024-04-25T04:07:50.185Z,7.33
2024-04-25T04:10:20.221Z,7.20
2024-04-25T04:12:50.248Z,7.18
2024-04-25T04:15:21.262Z,7.19
2024-04-25T04:17:51.765Z,7.25
2024-04-25T04:20:24.486Z,7.30
2024-04-25T04:22:54.458Z,7.31
2024-04-25T04:25:24.522Z,7.22
2024-04-25T04:27:54.587Z,7.13
2024-04-25T04:30:24.783Z,7.11
2024-04-25T04:32:54.888Z,7.13
2024-04-25T04:35:27.739Z,7.12
2024-04-25T04:37:58.613Z,7.13
2024-04-25T04:40:28.685Z,7.19
2024-04-25T04:42:58.820Z,7.20
2024-04-25T04:45:29.228Z,7.12
2024-04-25T04:47:59.384Z,7.07
2024-04-25T04:50:32.230Z,7.04
2024-04-25T04:53:02.359Z,7.08
2024-04-25T04:55:32.335Z,7.16
2024-04-25T04:58:02.278Z,7.31
2024-04-25T05:00:33.812Z,7.43
2024-04-25T05:03:03.985Z,7.55
2024-04-25T05:05:36.933Z,7.66
2024-04-25T05:08:07.481Z,7.75
2024-04-25T05:10:37.506Z,7.80
2024-04-25T05:13:08.022Z,7.86
2024-04-25T05:15:38.047Z,7.92
2024-04-25T05:18:08.652Z,7.96
2024-04-25T05:20:41.379Z,7.97
2024-04-25T05:23:11.988Z,8.04
2024-04-25T05:25:42.101Z,8.12
2024-04-25T05:28:12.138Z,8.23
2024-04-25T05:30:42.211Z,8.34
2024-04-25T05:33:12.480Z,8.37
2024-04-25T05:35:46.217Z,8.34
2024-04-25T05:38:16.278Z,8.36
2024-04-25T05:40:46.409Z,8.39
2024-04-25T05:43:16.327Z,8.34
2024-04-25T05:45:46.380Z,8.34
2024-04-25T05:48:16.648Z,8.34
2024-04-25T05:50:49.495Z,8.37
2024-04-25T05:53:19.582Z,8.36
2024-04-25T05:55:49.663Z,8.36
2024-04-25T05:58:19.676Z,8.37
2024-04-25T06:00:49.755Z,8.43
2024-04-25T06:03:19.867Z,8.47
2024-04-25T06:05:52.986Z,8.56
2024-04-25T06:08:23.014Z,8.56
2024-04-25T06:10:53.021Z,8.50
2024-04-25T06:13:23.115Z,8.53
2024-04-25T06:15:53.167Z,8.63
2024-04-25T06:18:23.246Z,8.75
2024-04-25T06:20:56.198Z,8.83
2024-04-25T06:23:26.289Z,8.93
2024-04-25T06:25:56.359Z,9.03
2024-04-25T06:28:27.637Z,9.11
2024-04-25T06:31:01.349Z,9.18
2024-04-25T06:33:31.710Z,9.20
2024-04-25T06:36:04.535Z,9.28
2024-04-25T06:38:34.576Z,9.37
2024-04-25T06:41:04.687Z,9.46
2024-04-25T06:43:36.009Z,9.60
2024-04-25T06:46:08.947Z,10.20
2024-04-25T06:48:39.205Z,11.10
2024-04-25T06:51:12.083Z,11.46
2024-04-25T06:53:42.169Z,12.82
2024-04-25T06:56:12.201Z,13.71
2024-04-25T06:58:43.032Z,14.14
2024-04-25T07:01:13.259Z,14.24
2024-04-25T07:03:43.447Z,14.80
2024-04-25T07:06:16.429Z,16.35
2024-04-25T07:08:46.492Z,17.92
2024-04-25T07:11:16.835Z,19.01
2024-04-25T07:13:47.260Z,19.90
2024-04-25T07:16:17.288Z,20.87
2024-04-25T07:18:47.420Z,21.99
2024-04-25T07:21:20.230Z,22.89
2024-04-25T07:23:50.324Z,23.73
2024-04-25T07:26:20.345Z,24.43
2024-04-25T07:28:50.489Z,24.95
2024-04-25T07:31:20.417Z,25.51
2024-04-25T07:33:50.578Z,26.08
2024-04-25T07:36:25.216Z,26.70
2024-04-25T07:38:55.543Z,27.36
2024-04-25T07:41:27.200Z,28.00
2024-04-25T07:43:57.299Z,28.49
2024-04-25T07:46:27.907Z,29.00
2024-04-25T07:48:58.423Z,29.55
2024-04-25T07:51:31.329Z,30.16
2024-04-25T07:54:01.348Z,30.96
2024-04-25T07:56:31.374Z,31.22
2024-04-25T07:59:01.612Z,31.58
2024-04-25T08:01:31.631Z,32.01
2024-04-25T08:04:02.160Z,32.35
2024-04-25T08:06:36.046Z,32.40
2024-04-25T08:09:07.353Z,32.74
2024-04-25T08:11:37.707Z,33.05
2024-04-25T08:14:07.873Z,34.05
2024-04-25T08:16:37.941Z,35.13
2024-04-25T08:19:09.430Z,36.10
2024-04-25T08:21:42.176Z,36.82
2024-04-25T08:24:14.458Z,37.46
2024-04-25T08:26:44.424Z,38.17
2024-04-25T08:29:14.478Z,38.14
2024-04-25T08:31:44.569Z,38.44
2024-04-25T08:34:15.346Z,38.58
2024-04-25T08:36:48.062Z,38.78
2024-04-25T08:39:18.107Z,38.40
2024-04-25T08:41:49.844Z,37.33
2024-04-25T08:44:20.108Z,37.95
2024-04-25T08:46:51.750Z,38.08
2024-04-25T08:49:24.207Z,35.79
2024-04-25T08:51:58.001Z,32.77
2024-04-25T08:54:28.498Z,31.38
2024-04-25T08:56:58.612Z,29.88
2024-04-25T08:59:28.600Z,29.08
2024-04-25T09:02:00.144Z,28.47
2024-04-25T09:04:31.694Z,27.43
2024-04-25T09:07:11.748Z,27.54
2024-04-25T09:09:42.347Z,28.58
2024-04-25T09:12:12.492Z,31.06
2024-04-25T09:14:42.735Z,32.98
2024-04-25T09:17:17.607Z,35.31
2024-04-25T09:19:48.075Z,36.92
2024-04-25T09:22:21.037Z,37.42
2024-04-25T09:24:51.162Z,37.66
2024-04-25T09:27:21.247Z,38.56
2024-04-25T09:29:54.682Z,39.84
2024-04-25T09:32:25.072Z,40.96
2024-04-25T09:34:55.198Z,41.93
2024-04-25T09:37:28.572Z,43.37
2024-04-25T09:40:03.690Z,44.52
2024-04-25T09:42:38.053Z,45.16
2024-04-25T09:45:11.017Z,45.95
2024-04-25T09:47:43.870Z,46.52
2024-04-25T09:50:20.180Z,46.59
2024-04-25T09:53:02.201Z,47.36
2024-04-25T09:55:39.527Z,47.57
2024-04-25T09:58:15.413Z,47.46
2024-04-25T10:00:47.206Z,47.62
2024-04-25T10:03:19.864Z,48.14
2024-04-25T10:05:50.447Z,48.83
2024-04-25T10:08:23.839Z,49.49
2024-04-25T10:10:54.429Z,50.02
2024-04-25T10:13:28.460Z,49.99
2024-04-25T10:16:00.648Z,49.40
2024-04-25T10:18:31.207Z,48.85
2024-04-25T10:21:05.192Z,48.47
2024-04-25T10:23:38.142Z,47.93
2024-04-25T10:26:08.588Z,47.62
2024-04-25T10:28:38.703Z,47.25
2024-04-25T10:31:08.779Z,46.91
2024-04-25T10:33:39.157Z,46.18
2024-04-25T10:36:10.213Z,44.70
2024-04-25T10:38:49.519Z,41.33
2024-04-25T10:41:34.970Z,37.43
2024-04-25T10:44:05.085Z,34.38
2024-04-25T10:46:37.007Z,32.01
2024-04-25T10:49:08.994Z,29.81
2024-04-25T10:51:42.137Z,27.98
2024-04-25T10:54:15.210Z,26.60
2024-04-25T10:56:45.433Z,25.12
2024-04-25T10:59:15.522Z,24.18
2024-04-25T11:01:45.590Z,23.30
2024-04-25T11:04:15.571Z,22.18
2024-04-25T11:06:45.733Z,21.42
2024-04-25T11:09:20.188Z,21.01
2024-04-25T11:11:51.075Z,20.83
2024-04-25T11:14:21.385Z,20.53
2024-04-25T11:16:51.496Z,20.26
2024-04-25T11:19:26.657Z,20.05
2024-04-25T11:21:57.801Z,19.87
2024-04-25T11:24:33.451Z,19.68
2024-04-25T11:27:04.482Z,19.61
2024-04-25T11:29:35.115Z,19.52
2024-04-25T11:32:06.355Z,19.39
2024-04-25T11:34:38.041Z,19.34
2024-04-25T11:37:09.587Z,19.19
2024-04-25T11:39:42.383Z,19.25
2024-04-25T11:42:13.339Z,19.09
2024-04-25T11:44:43.611Z,18.83
2024-04-25T11:47:14.277Z,18.62
2024-04-25T11:49:44.516Z,18.54
2024-04-25T11:52:15.735Z,18.56
2024-04-25T11:54:48.344Z,18.67
2024-04-25T11:57:19.490Z,18.73
2024-04-25T11:59:49.574Z,18.79
2024-04-25T12:02:19.817Z,18.90
2024-04-25T12:04:49.840Z,18.94
2024-04-25T12:07:19.910Z,18.97
2024-04-25T12:09:52.739Z,18.90
2024-04-25T12:12:22.803Z,18.85
2024-04-25T12:14:53.036Z,18.74
2024-04-25T12:17:23.112Z,18.73
2024-04-25T12:19:53.137Z,18.52
2024-04-25T12:22:23.294Z,18.44
2024-04-25T12:24:56.113Z,18.22
2024-04-25T12:27:26.123Z,18.16
2024-04-25T12:29:56.164Z,18.28
2024-04-25T12:32:26.402Z,18.47
2024-04-25T12:34:56.398Z,18.59
2024-04-25T12:37:26.423Z,18.49
2024-04-25T12:39:59.049Z,18.46
2024-04-25T12:42:29.175Z,18.53
2024-04-25T12:44:59.201Z,18.57
2024-04-25T12:47:29.455Z,18.64
2024-04-25T12:49:59.766Z,18.70
2024-04-25T12:52:31.504Z,18.74
2024-04-25T12:55:04.321Z,18.80
2024-04-25T12:57:34.405Z,18.88
2024-04-25T13:00:04.460Z,18.93
2024-04-25T13:02:34.578Z,18.94
2024-04-25T13:05:04.700Z,18.97
2024-04-25T13:07:34.587Z,18.95
2024-04-25T13:10:08.077Z,18.90
2024-04-25T13:12:38.918Z,18.79
2024-04-25T13:15:09.899Z,18.73
2024-04-25T13:17:40.066Z,18.81
2024-04-25T13:20:11.451Z,18.85
2024-04-25T13:22:41.413Z,18.88
2024-04-25T13:25:14.137Z,18.76
2024-04-25T13:27:44.147Z,18.56
2024-04-25T13:30:14.677Z,18.44
2024-04-25T13:32:46.826Z,18.49
2024-04-25T13:35:17.803Z,18.45
2024-04-25T13:37:47.831Z,18.31
2024-04-25T13:40:20.656Z,18.33
2024-04-25T13:42:50.731Z,18.36
2024-04-25T13:45:20.658Z,18.37
2024-04-25T13:47:50.897Z,18.42
2024-04-25T13:50:21.219Z,18.44
2024-04-25T13:52:51.268Z,18.45
2024-04-25T13:55:24.751Z,18.45
2024-04-25T13:57:55.194Z,18.25
2024-04-25T14:00:25.378Z,18.11
2024-04-25T14:02:55.538Z,18.00
2024-04-25T14:05:25.637Z,18.00
2024-04-25T14:07:56.242Z,17.99
2024-04-25T14:10:28.948Z,18.01
2024-04-25T14:12:58.985Z,17.89
2024-04-25T14:15:29.117Z,17.77
2024-04-25T14:17:56.779Z,17.77
2024-04-25T14:20:27.005Z,17.84
2024-04-25T14:22:57.000Z,17.85
2024-04-25T14:25:45.244Z,17.74
2024-04-25T14:28:31.283Z,17.64
2024-04-25T14:31:02.073Z,17.71
2024-04-25T14:33:32.198Z,17.84
2024-04-25T14:36:02.544Z,17.97
2024-04-25T14:38:32.938Z,18.07
2024-04-25T14:41:09.223Z,18.09
2024-04-25T14:43:40.037Z,18.10
2024-04-25T14:46:11.944Z,18.17
2024-04-25T14:48:42.478Z,18.28
2024-04-25T14:51:12.740Z,18.35
2024-04-25T14:53:42.838Z,18.38
2024-04-25T14:56:15.637Z,18.40
2024-04-25T14:58:45.595Z,18.47
2024-04-25T15:01:21.475Z,18.43
2024-04-25T15:03:51.675Z,18.44
2024-04-25T15:06:21.763Z,18.50
2024-04-25T15:08:51.748Z,18.55
2024-04-25T15:11:26.847Z,18.65
2024-04-25T15:13:56.919Z,18.70
2024-04-25T15:16:28.023Z,18.69
2024-04-25T15:18:57.979Z,18.60
2024-04-25T15:21:30.035Z,18.56
2024-04-25T15:24:02.029Z,18.54
2024-04-25T15:26:34.741Z,18.46
2024-04-25T15:29:07.740Z,18.52
2024-04-25T15:31:39.365Z,18.59
2024-04-25T15:34:10.177Z,18.65
2024-04-25T15:36:41.007Z,18.69
2024-04-25T15:39:10.994Z,18.73
2024-04-25T15:41:44.205Z,18.80
2024-04-25T15:44:14.350Z,18.84
2024-04-25T15:46:44.461Z,18.81
2024-04-25T15:49:16.544Z,18.88
2024-04-25T15:51:46.895Z,18.84
2024-04-25T15:54:16.918Z,18.81
2024-04-25T15:56:50.973Z,18.88
2024-04-25T15:59:21.449Z,18.93
2024-04-25T16:01:51.787Z,18.94
2024-04-25T16:04:22.723Z,18.98
2024-04-25T16:06:52.915Z,19.05
2024-04-25T16:09:22.894Z,19.11
2024-04-25T16:11:57.535Z,19.13
2024-04-25T16:14:27.826Z,19.09
2024-04-25T16:16:57.988Z,19.02
2024-04-25T16:19:30.389Z,18.95
2024-04-25T16:22:02.558Z,18.92
2024-04-25T16:24:33.537Z,18.92
2024-04-25T16:27:07.645Z,18.88
2024-04-25T16:29:37.931Z,18.84
2024-04-25T16:32:08.162Z,18.81
2024-04-25T16:34:38.310Z,18.76
2024-04-25T16:37:08.617Z,18.67
2024-04-25T16:39:39.238Z,18.53
2024-04-25T16:42:12.381Z,18.40
2024-04-25T16:44:43.536Z,18.30
2024-04-25T16:47:13.536Z,18.20
2024-04-25T16:49:43.549Z,18.09
2024-04-25T16:52:13.592Z,17.98
2024-04-25T16:54:43.738Z,17.90
2024-04-25T16:57:16.357Z,17.91
2024-04-25T16:59:47.565Z,17.92
2024-04-25T17:02:18.074Z,17.81
2024-04-25T17:04:50.539Z,17.55
2024-04-25T17:07:20.631Z,17.31
2024-04-25T17:09:51.017Z,17.04
2024-04-25T17:12:23.885Z,16.81
2024-04-25T17:14:54.029Z,16.58
2024-04-25T17:17:24.174Z,16.29
2024-04-25T17:19:54.143Z,16.05
2024-04-25T17:22:24.229Z,15.84
2024-04-25T17:24:54.189Z,15.58
2024-04-25T17:27:27.493Z,15.35
2024-04-25T17:29:57.454Z,15.11
2024-04-25T17:32:27.644Z,14.96
2024-04-25T17:35:00.132Z,14.73
2024-04-25T17:37:30.623Z,14.56
2024-04-25T17:40:00.766Z,14.51
2024-04-25T17:42:33.429Z,14.43
2024-04-25T17:45:05.772Z,14.34
2024-04-25T17:47:38.023Z,14.24
2024-04-25T17:50:09.534Z,14.12
2024-04-25T17:52:39.704Z,14.05
2024-04-25T17:55:12.593Z,14.02
2024-04-25T17:57:46.047Z,13.94
2024-04-25T18:00:16.745Z,13.82
2024-04-25T18:02:49.792Z,13.67
2024-04-25T18:05:19.895Z,13.58
2024-04-25T18:07:50.026Z,13.50
2024-04-25T18:10:20.187Z,13.45
2024-04-25T18:12:53.073Z,13.43
2024-04-25T18:15:23.007Z,13.39
2024-04-25T18:17:53.008Z,13.35
2024-04-25T18:20:23.203Z,13.33
2024-04-25T18:22:53.407Z,13.25
2024-04-25T18:25:23.379Z,13.24
2024-04-25T18:27:56.159Z,13.18
2024-04-25T18:30:26.446Z,13.16
2024-04-25T18:32:56.562Z,13.13
2024-04-25T18:35:27.039Z,13.08
2024-04-25T18:38:02.354Z,13.00
2024-04-25T18:40:32.331Z,13.01
2024-04-25T18:43:05.183Z,12.91
2024-04-25T18:45:35.217Z,12.86
2024-04-25T18:48:05.249Z,12.80
2024-04-25T18:50:36.236Z,12.73
2024-04-25T18:53:07.735Z,12.68
2024-04-25T18:55:37.647Z,12.69
2024-04-25T18:58:10.317Z,12.71
2024-04-25T19:00:42.502Z,12.65
2024-04-25T19:03:12.536Z,12.60
2024-04-25T19:05:42.499Z,12.59
2024-04-25T19:08:12.741Z,12.53
2024-04-25T19:10:42.779Z,12.48
2024-04-25T19:13:18.048Z,12.40
2024-04-25T19:15:48.088Z,12.38
2024-04-25T19:18:18.972Z,12.35
2024-04-25T19:20:48.964Z,12.35
2024-04-25T19:23:19.062Z,12.30
2024-04-25T19:25:48.993Z,12.29
2024-04-25T19:28:22.305Z,12.25
2024-04-25T19:30:52.114Z,12.22
2024-04-25T19:33:23.697Z,12.21
2024-04-25T19:35:53.679Z,12.18
2024-04-25T19:38:23.696Z,12.12
2024-04-25T19:40:54.639Z,12.07
2024-04-25T19:43:27.341Z,12.05
2024-04-25T19:45:57.127Z,12.03
2024-04-25T19:48:27.905Z,12.02
2024-04-25T19:50:57.972Z,12.01
2024-04-25T19:53:27.862Z,11.97
2024-04-25T19:55:57.817Z,11.97
2024-04-25T19:58:30.820Z,11.96
2024-04-25T20:01:00.999Z,11.94
2024-04-25T20:03:31.352Z,11.91
2024-04-25T20:06:02.735Z,11.89
2024-04-25T20:08:32.886Z,11.83
2024-04-25T20:11:02.849Z,11.81
2024-04-25T20:13:35.667Z,11.80
2024-04-25T20:16:06.274Z,11.81
2024-04-25T20:18:48.353Z,11.81
2024-04-25T20:21:18.350Z,11.79
2024-04-25T20:23:48.540Z,11.74
2024-04-25T20:26:18.613Z,11.70
2024-04-25T20:28:51.231Z,11.67
2024-04-25T20:31:21.477Z,11.64
2024-04-25T20:33:51.562Z,11.62
2024-04-25T20:36:21.552Z,11.59
2024-04-25T20:38:52.139Z,11.56
2024-04-25T20:41:22.833Z,11.53
2024-04-25T20:43:55.518Z,11.50
2024-04-25T20:46:25.978Z,11.52
2024-04-25T20:48:57.623Z,11.49
2024-04-25T20:51:31.741Z,11.46
2024-04-25T20:54:02.389Z,11.43
2024-04-25T20:56:32.456Z,11.42
2024-04-25T20:59:05.488Z,11.41
2024-04-25T21:01:39.328Z,11.37
2024-04-25T21:04:09.642Z,11.37
2024-04-25T21:06:44.818Z,11.38
2024-04-25T21:09:18.571Z,11.37
2024-04-25T21:11:48.850Z,11.34
2024-04-25T21:14:21.754Z,11.34
2024-04-25T21:16:53.211Z,11.31
2024-04-25T21:19:23.980Z,11.21
2024-04-25T21:21:54.012Z,11.14
2024-04-25T21:24:24.004Z,11.05
2024-04-25T21:26:54.087Z,10.99
2024-04-25T21:29:26.763Z,10.93
2024-04-25T21:31:54.247Z,10.86
2024-04-25T21:34:24.371Z,10.79
2024-04-25T21:36:54.663Z,10.75
2024-04-25T21:39:24.801Z,10.70
2024-04-25T21:41:54.967Z,10.64
2024-04-25T21:44:27.765Z,10.62
2024-04-25T21:46:57.673Z,10.58
2024-04-25T21:49:27.860Z,10.56
2024-04-25T21:51:58.110Z,10.55
2024-04-25T21:54:28.114Z,10.52
2024-04-25T21:56:58.171Z,10.43
2024-04-25T21:59:31.023Z,10.36
2024-04-25T22:02:01.608Z,10.31
2024-04-25T22:04:31.651Z,10.25
2024-04-25T22:07:01.640Z,10.26
2024-04-25T22:09:31.646Z,10.28
2024-04-25T22:12:01.892Z,10.25
2024-04-25T22:14:34.664Z,10.32
2024-04-25T22:17:04.669Z,10.33
2024-04-25T22:19:34.720Z,10.24
2024-04-25T22:22:04.983Z,10.12
2024-04-25T22:24:34.956Z,9.96
2024-04-25T22:27:04.945Z,9.84
2024-04-25T22:29:37.615Z,9.76
2024-04-25T22:32:08.260Z,9.70
2024-04-25T22:34:38.267Z,9.65
2024-04-25T22:37:08.368Z,9.61
2024-04-25T22:39:38.355Z,9.55
2024-04-25T22:42:09.781Z,9.54
2024-04-25T22:44:42.483Z,9.57
2024-04-25T22:47:12.411Z,9.57
2024-04-25T22:49:42.364Z,9.55
2024-04-25T22:52:12.331Z,9.55
2024-04-25T22:54:42.327Z,9.59
2024-04-25T22:57:12.283Z,9.65
2024-04-25T22:59:44.994Z,9.72
2024-04-25T23:02:15.111Z,9.74
2024-04-25T23:04:45.144Z,9.80
2024-04-25T23:07:15.147Z,9.80
2024-04-25T23:09:46.503Z,9.84
2024-04-25T23:12:16.706Z,9.83
2024-04-25T23:14:50.021Z,9.82
2024-04-25T23:17:20.373Z,9.80
2024-04-25T23:19:50.355Z,9.81
2024-04-25T23:22:20.337Z,9.86
2024-04-25T23:24:50.338Z,9.91
2024-04-25T23:27:20.381Z,9.92
2024-04-25T23:29:53.218Z,9.89
2024-04-25T23:32:23.372Z,9.86
2024-04-25T23:34:53.332Z,9.79
2024-04-25T23:37:23.418Z,9.77
2024-04-25T23:39:53.391Z,9.75
2024-04-25T23:42:23.444Z,9.65
2024-04-25T23:44:56.251Z,9.59
2024-04-25T23:47:26.421Z,9.54
2024-04-25T23:49:56.491Z,9.55
2024-04-25T23:52:26.539Z,9.61
2024-04-25T23:54:56.467Z,9.73
2024-04-25T23:57:26.456Z,9.85
2024-04-25T23:59:59.215Z,9.97
